sensor_id;sensor_type;location;lat;lon;timestamp;pressure;altitude;pressure_sealevel;temperature;humidity
12664;BME280;6396;58.490;15.528;2023-04-03T00:01:45;102907.31;;;-0.69;100.00
12664;BME280;6396;58.490;15.528;2023-04-03T00:04:11;102846.00;;;-0.83;100.00
12664;BME280;6396;58.490;15.528;2023-04-03T00:06:38;102958.72;;;-0.48;100.00
12664;BME280;6396;58.490;15.528;2023-04-03T00:09:06;102472.69;;;-3.04;100.00
12664;BME280;6396;58.490;15.528;2023-04-03T00:11:33;102926.59;;;-0.50;100.00
12664;BME280;6396;58.490;15.528;2023-04-03T00:14:00;102720.25;;;-2.12;100.00
12664;BME280;6396;58.490;15.528;2023-04-03T00:16:27;102550.03;;;-2.92;100.00
12664;BME280;6396;58.490;15.528;2023-04-03T00:18:53;102869.34;;;-1.14;100.00
12664;BME280;6396;58.490;15.528;2023-04-03T00:21:20;102952.84;;;-0.60;100.00
12664;BME280;6396;58.490;15.528;2023-04-03T00:23:47;102927.06;;;-0.57;100.00
12664;BME280;6396;58.490;15.528;2023-04-03T00:26:15;102899.69;;;-0.97;100.00
12664;BME280;6396;58.490;15.528;2023-04-03T00:28:42;103018.56;;;-0.59;100.00
12664;BME280;6396;58.490;15.528;2023-04-03T00:31:09;102501.56;;;-2.96;100.00
12664;BME280;6396;58.490;15.528;2023-04-03T00:33:38;102928.03;;;-0.55;100.00
12664;BME280;6396;58.490;15.528;2023-04-03T00:36:09;102784.94;;;-2.12;100.00
12664;BME280;6396;58.490;15.528;2023-04-03T00:38:36;102937.28;;;-0.60;100.00
12664;BME280;6396;58.490;15.528;2023-04-03T00:41:03;102779.69;;;-1.56;100.00
12664;BME280;6396;58.490;15.528;2023-04-03T00:43:32;102936.13;;;-0.65;100.00
12664;BME280;6396;58.490;15.528;2023-04-03T00:45:59;102759.16;;;-1.67;100.00
12664;BME280;6396;58.490;15.528;2023-04-03T00:48:29;102844.81;;;-1.04;100.00
12664;BME280;6396;58.490;15.528;2023-04-03T00:50:58;102925.28;;;-0.58;100.00
12664;BME280;6396;58.490;15.528;2023-04-03T00:53:28;102802.34;;;-1.37;100.00
12664;BME280;6396;58.490;15.528;2023-04-03T00:55:57;102903.13;;;-0.82;100.00
12664;BME280;6396;58.490;15.528;2023-04-03T00:58:31;102783.59;;;-1.62;100.00
12664;BME280;6396;58.490;15.528;2023-04-03T01:01:05;102943.72;;;-0.68;100.00
12664;BME280;6396;58.490;15.528;2023-04-03T01:03:33;102910.44;;;-1.05;100.00
12664;BME280;6396;58.490;15.528;2023-04-03T01:06:01;103064.38;;;-0.60;100.00
12664;BME280;6396;58.490;15.528;2023-04-03T01:08:27;102986.72;;;-0.71;100.00
12664;BME280;6396;58.490;15.528;2023-04-03T01:10:55;102395.16;;;-3.91;100.00
12664;BME280;6396;58.490;15.528;2023-04-03T01:13:24;102459.47;;;-3.38;100.00
12664;BME280;6396;58.490;15.528;2023-04-03T01:15:52;102383.28;;;-4.17;100.00
12664;BME280;6396;58.490;15.528;2023-04-03T01:18:21;102844.56;;;-1.24;100.00
12664;BME280;6396;58.490;15.528;2023-04-03T01:26:58;102648.69;;;-2.70;100.00
12664;BME280;6396;58.490;15.528;2023-04-03T01:29:25;102988.72;;;-0.96;100.00
12664;BME280;6396;58.490;15.528;2023-04-03T01:31:55;102855.75;;;-1.54;100.00
12664;BME280;6396;58.490;15.528;2023-04-03T01:34:23;102993.28;;;-1.07;100.00
12664;BME280;6396;58.490;15.528;2023-04-03T01:36:50;102951.53;;;-1.12;100.00
12664;BME280;6396;58.490;15.528;2023-04-03T01:39:18;102495.50;;;-3.68;100.00
12664;BME280;6396;58.490;15.528;2023-04-03T01:41:45;102765.56;;;-2.34;100.00
12664;BME280;6396;58.490;15.528;2023-04-03T01:44:12;102848.47;;;-2.03;100.00
12664;BME280;6396;58.490;15.528;2023-04-03T01:46:39;102940.09;;;-1.15;100.00
12664;BME280;6396;58.490;15.528;2023-04-03T01:49:09;102941.91;;;-1.14;100.00
12664;BME280;6396;58.490;15.528;2023-04-03T01:51:35;102939.91;;;-1.18;100.00
12664;BME280;6396;58.490;15.528;2023-04-03T01:54:02;102846.25;;;-1.97;100.00
12664;BME280;6396;58.490;15.528;2023-04-03T01:56:29;102568.31;;;-3.59;100.00
12664;BME280;6396;58.490;15.528;2023-04-03T01:58:56;102783.94;;;-2.14;100.00
12664;BME280;6396;58.490;15.528;2023-04-03T02:01:22;102872.31;;;-1.94;100.00
12664;BME280;6396;58.490;15.528;2023-04-03T02:03:51;102880.13;;;-1.79;100.00
12664;BME280;6396;58.490;15.528;2023-04-03T02:06:19;102996.03;;;-1.33;100.00
12664;BME280;6396;58.490;15.528;2023-04-03T02:08:46;102940.81;;;-1.32;100.00
12664;BME280;6396;58.490;15.528;2023-04-03T02:11:12;102939.81;;;-1.34;100.00
12664;BME280;6396;58.490;15.528;2023-04-03T02:13:39;102887.84;;;-1.94;100.00
12664;BME280;6396;58.490;15.528;2023-04-03T02:16:07;102960.38;;;-1.37;100.00
12664;BME280;6396;58.490;15.528;2023-04-03T02:18:35;102943.75;;;-1.41;100.00
12664;BME280;6396;58.490;15.528;2023-04-03T02:21:02;102943.47;;;-1.45;100.00
12664;BME280;6396;58.490;15.528;2023-04-03T02:23:30;102946.06;;;-1.45;100.00
12664;BME280;6396;58.490;15.528;2023-04-03T02:26:08;102988.22;;;-1.48;100.00
12664;BME280;6396;58.490;15.528;2023-04-03T02:28:35;102954.47;;;-1.49;100.00
12664;BME280;6396;58.490;15.528;2023-04-03T02:31:03;102885.56;;;-1.89;100.00
12664;BME280;6396;58.490;15.528;2023-04-03T02:33:30;102888.75;;;-1.93;100.00
12664;BME280;6396;58.490;15.528;2023-04-03T02:35:57;102547.31;;;-4.19;100.00
12664;BME280;6396;58.490;15.528;2023-04-03T02:38:25;102982.41;;;-1.58;100.00
12664;BME280;6396;58.490;15.528;2023-04-03T02:40:53;102857.88;;;-2.05;100.00
12664;BME280;6396;58.490;15.528;2023-04-03T02:43:25;102950.50;;;-1.57;100.00
12664;BME280;6396;58.490;15.528;2023-04-03T02:45:52;102829.78;;;-2.27;100.00
12664;BME280;6396;58.490;15.528;2023-04-03T02:48:19;102960.72;;;-1.46;100.00
12664;BME280;6396;58.490;15.528;2023-04-03T02:50:45;102726.81;;;-2.89;100.00
12664;BME280;6396;58.490;15.528;2023-04-03T02:53:12;102890.72;;;-1.89;100.00
12664;BME280;6396;58.490;15.528;2023-04-03T02:55:39;102914.34;;;-1.70;100.00
12664;BME280;6396;58.490;15.528;2023-04-03T02:58:07;102794.59;;;-2.38;100.00
12664;BME280;6396;58.490;15.528;2023-04-03T03:00:34;102838.47;;;-2.39;100.00
12664;BME280;6396;58.490;15.528;2023-04-03T03:03:01;102989.91;;;-1.48;100.00
12664;BME280;6396;58.490;15.528;2023-04-03T03:05:28;102922.41;;;-1.93;100.00
12664;BME280;6396;58.490;15.528;2023-04-03T03:07:55;103008.03;;;-1.48;100.00
12664;BME280;6396;58.490;15.528;2023-04-03T03:10:22;102972.13;;;-1.57;100.00
12664;BME280;6396;58.490;15.528;2023-04-03T03:12:49;102585.75;;;-3.96;100.00
12664;BME280;6396;58.490;15.528;2023-04-03T03:15:17;102430.16;;;-4.63;100.00
12664;BME280;6396;58.490;15.528;2023-04-03T03:17:44;102983.47;;;-1.55;100.00
12664;BME280;6396;58.490;15.528;2023-04-03T03:20:12;102864.75;;;-2.46;100.00
12664;BME280;6396;58.490;15.528;2023-04-03T03:22:40;102971.88;;;-1.61;100.00
12664;BME280;6396;58.490;15.528;2023-04-03T03:25:08;102914.78;;;-2.05;100.00
12664;BME280;6396;58.490;15.528;2023-04-03T03:27:35;102964.66;;;-1.80;100.00
12664;BME280;6396;58.490;15.528;2023-04-03T03:30:03;102882.63;;;-2.77;100.00
12664;BME280;6396;58.490;15.528;2023-04-03T03:32:31;102847.91;;;-2.40;100.00
12664;BME280;6396;58.490;15.528;2023-04-03T03:34:58;102979.06;;;-1.70;100.00
12664;BME280;6396;58.490;15.528;2023-04-03T03:37:25;102788.38;;;-2.69;100.00
12664;BME280;6396;58.490;15.528;2023-04-03T03:39:52;102980.63;;;-1.59;100.00
12664;BME280;6396;58.490;15.528;2023-04-03T03:42:19;102589.41;;;-3.79;100.00
12664;BME280;6396;58.490;15.528;2023-04-03T03:44:45;102979.53;;;-1.63;100.00
12664;BME280;6396;58.490;15.528;2023-04-03T03:47:12;102733.00;;;-3.67;100.00
12664;BME280;6396;58.490;15.528;2023-04-03T03:49:40;102631.44;;;-3.67;100.00
12664;BME280;6396;58.490;15.528;2023-04-03T03:52:07;102997.25;;;-1.56;100.00
12664;BME280;6396;58.490;15.528;2023-04-03T03:54:35;102989.34;;;-1.57;100.00
12664;BME280;6396;58.490;15.528;2023-04-03T03:57:02;102948.19;;;-1.95;100.00
12664;BME280;6396;58.490;15.528;2023-04-03T03:59:29;102966.78;;;-1.87;100.00
12664;BME280;6396;58.490;15.528;2023-04-03T04:01:56;102944.13;;;-2.04;100.00
12664;BME280;6396;58.490;15.528;2023-04-03T04:04:23;102948.19;;;-1.95;100.00
12664;BME280;6396;58.490;15.528;2023-04-03T04:06:51;102821.88;;;-2.83;100.00
12664;BME280;6396;58.490;15.528;2023-04-03T04:09:18;103012.84;;;-1.82;100.00
12664;BME280;6396;58.490;15.528;2023-04-03T04:11:44;103029.19;;;-1.83;100.00
12664;BME280;6396;58.490;15.528;2023-04-03T04:14:11;102994.88;;;-1.93;100.00
12664;BME280;6396;58.490;15.528;2023-04-03T04:16:38;103058.69;;;-1.94;100.00
12664;BME280;6396;58.490;15.528;2023-04-03T04:19:05;102841.09;;;-2.93;100.00
12664;BME280;6396;58.490;15.528;2023-04-03T04:21:32;102877.09;;;-2.96;100.00
12664;BME280;6396;58.490;15.528;2023-04-03T04:24:00;103004.81;;;-1.99;100.00
12664;BME280;6396;58.490;15.528;2023-04-03T04:26:27;102979.19;;;-2.09;100.00
12664;BME280;6396;58.490;15.528;2023-04-03T04:28:54;103003.22;;;-1.97;100.00
12664;BME280;6396;58.490;15.528;2023-04-03T04:31:21;102671.44;;;-4.26;100.00
12664;BME280;6396;58.490;15.528;2023-04-03T04:33:47;103008.63;;;-1.94;100.00
12664;BME280;6396;58.490;15.528;2023-04-03T04:36:14;102719.38;;;-3.51;100.00
12664;BME280;6396;58.490;15.528;2023-04-03T04:38:41;103004.72;;;-1.88;100.00
12664;BME280;6396;58.490;15.528;2023-04-03T04:41:09;103017.47;;;-1.91;100.00
12664;BME280;6396;58.490;15.528;2023-04-03T04:43:36;102904.13;;;-2.37;100.00
12664;BME280;6396;58.490;15.528;2023-04-03T04:46:04;102771.72;;;-3.27;100.00
12664;BME280;6396;58.490;15.528;2023-04-03T04:48:32;102224.22;;;-6.83;100.00
12664;BME280;6396;58.490;15.528;2023-04-03T04:50:58;103007.38;;;-1.73;100.00
12664;BME280;6396;58.490;15.528;2023-04-03T04:53:25;102876.94;;;-2.58;100.00
12664;BME280;6396;58.490;15.528;2023-04-03T04:55:55;102808.69;;;-3.01;100.00
12664;BME280;6396;58.490;15.528;2023-04-03T04:58:23;102471.59;;;-5.50;100.00
12664;BME280;6396;58.490;15.528;2023-04-03T05:00:58;102787.94;;;-2.89;100.00
12664;BME280;6396;58.490;15.528;2023-04-03T05:03:49;103014.81;;;-1.65;100.00
12664;BME280;6396;58.490;15.528;2023-04-03T05:06:16;102923.84;;;-2.11;100.00
12664;BME280;6396;58.490;15.528;2023-04-03T05:08:43;102783.84;;;-2.86;100.00
12664;BME280;6396;58.490;15.528;2023-04-03T05:11:10;102724.59;;;-3.23;100.00
12664;BME280;6396;58.490;15.528;2023-04-03T05:13:38;102950.09;;;-1.78;100.00
12664;BME280;6396;58.490;15.528;2023-04-03T05:16:06;102346.13;;;-5.15;100.00
12664;BME280;6396;58.490;15.528;2023-04-03T05:18:33;102914.06;;;-2.30;100.00
12664;BME280;6396;58.490;15.528;2023-04-03T05:21:00;102747.91;;;-2.96;100.00
12664;BME280;6396;58.490;15.528;2023-04-03T05:23:27;102659.66;;;-3.57;100.00
12664;BME280;6396;58.490;15.528;2023-04-03T05:25:54;102688.91;;;-3.44;100.00
12664;BME280;6396;58.490;15.528;2023-04-03T05:28:20;102915.28;;;-1.83;100.00
12664;BME280;6396;58.490;15.528;2023-04-03T05:30:53;103005.16;;;-1.25;100.00
12664;BME280;6396;58.490;15.528;2023-04-03T05:33:21;102900.84;;;-1.79;100.00
12664;BME280;6396;58.490;15.528;2023-04-03T05:35:48;102997.63;;;-1.21;100.00
12664;BME280;6396;58.490;15.528;2023-04-03T05:38:16;102930.66;;;-1.71;100.00
12664;BME280;6396;58.490;15.528;2023-04-03T05:40:42;102913.94;;;-1.76;100.00
12664;BME280;6396;58.490;15.528;2023-04-03T05:43:09;103010.69;;;-1.04;100.00
12664;BME280;6396;58.490;15.528;2023-04-03T05:45:36;102974.03;;;-1.40;100.00
12664;BME280;6396;58.490;15.528;2023-04-03T05:48:05;102485.25;;;-3.94;100.00
12664;BME280;6396;58.490;15.528;2023-04-03T05:50:31;102994.97;;;-0.78;100.00
12664;BME280;6396;58.490;15.528;2023-04-03T05:52:59;102631.19;;;-3.44;100.00
12664;BME280;6396;58.490;15.528;2023-04-03T05:55:26;102555.47;;;-3.30;100.00
12664;BME280;6396;58.490;15.528;2023-04-03T05:57:53;103013.94;;;-0.65;100.00
12664;BME280;6396;58.490;15.528;2023-04-03T06:00:20;102907.31;;;-1.15;100.00
12664;BME280;6396;58.490;15.528;2023-04-03T06:02:47;102787.47;;;-1.70;100.00
12664;BME280;6396;58.490;15.528;2023-04-03T06:05:16;102763.25;;;-1.85;100.00
12664;BME280;6396;58.490;15.528;2023-04-03T06:07:43;102246.00;;;-4.70;100.00
12664;BME280;6396;58.490;15.528;2023-04-03T06:10:11;102992.50;;;-0.32;100.00
12664;BME280;6396;58.490;15.528;2023-04-03T06:12:38;102211.81;;;-4.67;100.00
12664;BME280;6396;58.490;15.528;2023-04-03T06:15:06;102795.94;;;-1.58;100.00
12664;BME280;6396;58.490;15.528;2023-04-03T06:17:35;102658.34;;;-2.53;100.00
12664;BME280;6396;58.490;15.528;2023-04-03T06:20:03;102446.19;;;-4.00;100.00
12664;BME280;6396;58.490;15.528;2023-04-03T06:22:31;102646.75;;;-2.31;100.00
12664;BME280;6396;58.490;15.528;2023-04-03T06:24:58;103097.22;;;-0.01;100.00
12664;BME280;6396;58.490;15.528;2023-04-03T06:27:25;102994.81;;;0.11;100.00
12664;BME280;6396;58.490;15.528;2023-04-03T06:29:54;102532.13;;;-2.89;100.00
12664;BME280;6396;58.490;15.528;2023-04-03T06:32:20;102998.69;;;0.33;100.00
12664;BME280;6396;58.490;15.528;2023-04-03T06:34:47;102703.47;;;-1.14;100.00
12664;BME280;6396;58.490;15.528;2023-04-03T06:37:15;102846.16;;;0.15;100.00
12664;BME280;6396;58.490;15.528;2023-04-03T06:39:45;102784.31;;;0.41;100.00
12664;BME280;6396;58.490;15.528;2023-04-03T06:42:12;102162.81;;;-2.86;100.00
12664;BME280;6396;58.490;15.528;2023-04-03T06:44:39;102988.19;;;2.59;100.00
12664;BME280;6396;58.490;15.528;2023-04-03T06:47:09;102515.16;;;0.64;100.00
12664;BME280;6396;58.490;15.528;2023-04-03T06:49:44;103018.81;;;4.30;100.00
12664;BME280;6396;58.490;15.528;2023-04-03T06:52:19;102542.19;;;2.79;100.00
12664;BME280;6396;58.490;15.528;2023-04-03T06:55:09;102979.84;;;6.15;98.05
12664;BME280;6396;58.490;15.528;2023-04-03T07:01:23;102517.88;;;4.98;78.90
12664;BME280;6396;58.490;15.528;2023-04-03T07:03:58;102837.09;;;7.45;100.00
12664;BME280;6396;58.490;15.528;2023-04-03T07:06:32;102357.31;;;5.33;72.78
12664;BME280;6396;58.490;15.528;2023-04-03T07:09:04;103090.31;;;10.38;84.59
12664;BME280;6396;58.490;15.528;2023-04-03T07:11:44;102311.31;;;7.35;75.22
12664;BME280;6396;58.490;15.528;2023-04-03T07:14:12;102645.34;;;9.14;73.16
12664;BME280;6396;58.490;15.528;2023-04-03T07:17:19;102317.69;;;7.50;54.98
12664;BME280;6396;58.490;15.528;2023-04-03T07:20:21;102293.25;;;8.31;54.62
12664;BME280;6396;58.490;15.528;2023-04-03T07:22:55;102767.34;;;11.98;61.05
12664;BME280;6396;58.490;15.528;2023-04-03T07:25:24;103003.56;;;13.47;56.29
12664;BME280;6396;58.490;15.528;2023-04-03T07:27:54;102683.50;;;11.94;55.86
12664;BME280;6396;58.490;15.528;2023-04-03T07:30:21;102971.69;;;13.92;56.79
12664;BME280;6396;58.490;15.528;2023-04-03T07:32:48;102894.66;;;13.92;53.93
12664;BME280;6396;58.490;15.528;2023-04-03T07:35:15;102739.16;;;12.86;53.42
12664;BME280;6396;58.490;15.528;2023-04-03T07:37:42;102983.84;;;14.63;51.02
12664;BME280;6396;58.490;15.528;2023-04-03T07:40:10;102755.78;;;13.54;51.54
12664;BME280;6396;58.490;15.528;2023-04-03T07:42:37;102862.78;;;13.79;48.51
12664;BME280;6396;58.490;15.528;2023-04-03T07:45:06;102980.91;;;15.12;47.52
12664;BME280;6396;58.490;15.528;2023-04-03T07:47:33;102982.63;;;15.21;49.56
12664;BME280;6396;58.490;15.528;2023-04-03T07:50:00;102970.94;;;15.41;47.55
12664;BME280;6396;58.490;15.528;2023-04-03T07:52:27;102885.09;;;15.12;47.17
12664;BME280;6396;58.490;15.528;2023-04-03T07:54:53;102873.34;;;15.37;45.66
12664;BME280;6396;58.490;15.528;2023-04-03T07:57:20;103032.56;;;16.04;46.14
12664;BME280;6396;58.490;15.528;2023-04-03T07:59:47;102304.94;;;11.89;45.79
12664;BME280;6396;58.490;15.528;2023-04-03T08:02:15;102584.59;;;14.09;43.10
12664;BME280;6396;58.490;15.528;2023-04-03T08:04:42;102940.72;;;16.29;44.50
12664;BME280;6396;58.490;15.528;2023-04-03T08:07:09;102736.44;;;14.72;43.70
12664;BME280;6396;58.490;15.528;2023-04-03T08:09:35;102993.31;;;16.18;43.28
12664;BME280;6396;58.490;15.528;2023-04-03T08:12:02;102959.53;;;16.17;44.23
12664;BME280;6396;58.490;15.528;2023-04-03T08:14:30;102645.53;;;14.32;43.56
12664;BME280;6396;58.490;15.528;2023-04-03T08:16:59;102746.69;;;15.12;42.98
12664;BME280;6396;58.490;15.528;2023-04-03T08:19:29;102853.84;;;16.13;44.41
12664;BME280;6396;58.490;15.528;2023-04-03T08:21:56;103009.47;;;16.79;44.06
12664;BME280;6396;58.490;15.528;2023-04-03T08:24:24;102647.06;;;15.33;43.11
12664;BME280;6396;58.490;15.528;2023-04-03T08:26:51;102739.00;;;15.64;42.14
12664;BME280;6396;58.490;15.528;2023-04-03T08:29:18;102570.94;;;14.50;43.01
12664;BME280;6396;58.490;15.528;2023-04-03T08:31:46;102706.13;;;15.67;42.91
12664;BME280;6396;58.490;15.528;2023-04-03T08:34:15;102694.53;;;15.68;39.47
12664;BME280;6396;58.490;15.528;2023-04-03T08:36:43;102988.44;;;17.17;41.46
12664;BME280;6396;58.490;15.528;2023-04-03T08:39:11;102767.69;;;16.11;41.95
12664;BME280;6396;58.490;15.528;2023-04-03T08:41:39;102830.91;;;16.63;40.18
12664;BME280;6396;58.490;15.528;2023-04-03T08:44:15;102993.19;;;16.98;38.26
12664;BME280;6396;58.490;15.528;2023-04-03T08:46:57;102981.00;;;16.79;34.22
12664;BME280;6396;58.490;15.528;2023-04-03T08:49:28;102410.72;;;13.56;41.64
12664;BME280;6396;58.490;15.528;2023-04-03T08:52:00;103033.34;;;16.89;39.12
12664;BME280;6396;58.490;15.528;2023-04-03T08:54:31;102719.34;;;15.74;38.59
12664;BME280;6396;58.490;15.528;2023-04-03T08:57:02;102858.75;;;16.43;38.22
12664;BME280;6396;58.490;15.528;2023-04-03T08:59:33;102985.09;;;17.03;38.92
12664;BME280;6396;58.490;15.528;2023-04-03T09:02:04;102661.53;;;15.11;39.17
12664;BME280;6396;58.490;15.528;2023-04-03T09:04:40;102977.38;;;16.85;39.83
12664;BME280;6396;58.490;15.528;2023-04-03T09:07:13;102700.03;;;14.80;34.43
12664;BME280;6396;58.490;15.528;2023-04-03T09:09:43;102789.00;;;15.38;40.73
12664;BME280;6396;58.490;15.528;2023-04-03T09:12:17;102806.69;;;15.48;35.72
12664;BME280;6396;58.490;15.528;2023-04-03T09:14:53;102745.69;;;15.22;37.23
12664;BME280;6396;58.490;15.528;2023-04-03T09:17:33;102947.69;;;16.42;36.05
12664;BME280;6396;58.490;15.528;2023-04-03T09:20:18;102605.50;;;14.50;38.19
12664;BME280;6396;58.490;15.528;2023-04-03T09:22:48;102948.28;;;16.65;39.36
12664;BME280;6396;58.490;15.528;2023-04-03T09:25:21;102868.53;;;15.74;38.30
12664;BME280;6396;58.490;15.528;2023-04-03T09:27:48;102466.44;;;13.57;38.30
12664;BME280;6396;58.490;15.528;2023-04-03T09:30:17;102666.44;;;14.71;39.74
12664;BME280;6396;58.490;15.528;2023-04-03T09:32:45;102889.38;;;16.13;40.01
12664;BME280;6396;58.490;15.528;2023-04-03T09:35:25;102785.56;;;15.28;33.54
12664;BME280;6396;58.490;15.528;2023-04-03T09:38:00;102732.59;;;15.01;39.38
12664;BME280;6396;58.490;15.528;2023-04-03T09:40:35;102926.03;;;15.95;39.65
12664;BME280;6396;58.490;15.528;2023-04-03T09:43:22;102937.19;;;15.45;36.54
12664;BME280;6396;58.490;15.528;2023-04-03T09:45:53;102933.09;;;14.99;36.72
12664;BME280;6396;58.490;15.528;2023-04-03T09:48:21;102947.41;;;14.81;39.25
12664;BME280;6396;58.490;15.528;2023-04-03T09:50:54;102930.72;;;14.50;39.64
12664;BME280;6396;58.490;15.528;2023-04-03T09:53:34;102922.53;;;14.88;40.24
12664;BME280;6396;58.490;15.528;2023-04-03T09:56:04;102931.22;;;15.13;38.66
12664;BME280;6396;58.490;15.528;2023-04-03T09:58:33;102926.31;;;14.43;38.10
12664;BME280;6396;58.490;15.528;2023-04-03T10:01:04;102907.91;;;13.89;37.71
12664;BME280;6396;58.490;15.528;2023-04-03T10:03:33;102600.41;;;12.69;40.15
12664;BME280;6396;58.490;15.528;2023-04-03T10:06:02;102899.75;;;14.42;39.36
12664;BME280;6396;58.490;15.528;2023-04-03T10:08:33;102692.31;;;12.91;38.28
12664;BME280;6396;58.490;15.528;2023-04-03T10:11:14;102777.13;;;13.18;38.91
12664;BME280;6396;58.490;15.528;2023-04-03T10:14:00;102911.44;;;13.99;38.08
12664;BME280;6396;58.490;15.528;2023-04-03T10:16:34;102909.59;;;14.08;39.38
12664;BME280;6396;58.490;15.528;2023-04-03T10:19:12;102909.66;;;14.04;36.88
12664;BME280;6396;58.490;15.528;2023-04-03T10:21:45;102905.28;;;13.83;39.92
12664;BME280;6396;58.490;15.528;2023-04-03T10:24:20;102566.06;;;11.56;36.71
12664;BME280;6396;58.490;15.528;2023-04-03T10:26:54;102417.00;;;10.72;36.66
12664;BME280;6396;58.490;15.528;2023-04-03T10:29:40;102837.25;;;12.69;43.47
12664;BME280;6396;58.490;15.528;2023-04-03T10:32:29;102831.94;;;12.59;38.79
12664;BME280;6396;58.490;15.528;2023-04-03T10:35:06;102789.50;;;12.48;40.28
12664;BME280;6396;58.490;15.528;2023-04-03T10:37:44;102877.94;;;12.91;43.70
12664;BME280;6396;58.490;15.528;2023-04-03T10:40:23;102900.91;;;12.89;43.00
12664;BME280;6396;58.490;15.528;2023-04-03T10:43:01;102863.69;;;12.39;43.06
12664;BME280;6396;58.490;15.528;2023-04-03T10:45:44;102600.16;;;10.74;42.63
12664;BME280;6396;58.490;15.528;2023-04-03T10:48:18;102871.56;;;12.18;44.25
12664;BME280;6396;58.490;15.528;2023-04-03T10:50:52;102656.56;;;10.76;45.81
12664;BME280;6396;58.490;15.528;2023-04-03T10:53:28;102863.59;;;12.06;45.23
12664;BME280;6396;58.490;15.528;2023-04-03T10:56:03;102633.47;;;10.45;46.41
12664;BME280;6396;58.490;15.528;2023-04-03T10:58:36;102263.41;;;8.27;47.28
12664;BME280;6396;58.490;15.528;2023-04-03T11:01:08;102591.13;;;10.30;46.55
12664;BME280;6396;58.490;15.528;2023-04-03T11:03:40;102546.72;;;9.81;42.07
12664;BME280;6396;58.490;15.528;2023-04-03T11:06:11;102742.22;;;11.07;47.99
12664;BME280;6396;58.490;15.528;2023-04-03T11:08:44;102334.28;;;9.00;47.05
12664;BME280;6396;58.490;15.528;2023-04-03T11:11:16;102770.75;;;11.65;43.54
12664;BME280;6396;58.490;15.528;2023-04-03T11:13:48;102849.53;;;12.25;40.82
12664;BME280;6396;58.490;15.528;2023-04-03T11:16:21;102841.50;;;12.04;39.44
12664;BME280;6396;58.490;15.528;2023-04-03T11:18:54;102829.16;;;12.04;43.67
12664;BME280;6396;58.490;15.528;2023-04-03T11:21:28;102831.81;;;12.09;44.89
12664;BME280;6396;58.490;15.528;2023-04-03T11:24:02;102832.75;;;12.14;43.12
12664;BME280;6396;58.490;15.528;2023-04-03T11:26:37;102548.94;;;10.42;41.68
12664;BME280;6396;58.490;15.528;2023-04-03T11:29:08;102777.75;;;11.53;44.79
12664;BME280;6396;58.490;15.528;2023-04-03T11:31:45;102765.28;;;11.34;39.70
12664;BME280;6396;58.490;15.528;2023-04-03T11:34:26;102730.88;;;11.24;44.08
12664;BME280;6396;58.490;15.528;2023-04-03T11:37:00;102830.81;;;11.77;45.94
12664;BME280;6396;58.490;15.528;2023-04-03T11:39:30;102417.00;;;9.21;46.13
12664;BME280;6396;58.490;15.528;2023-04-03T11:42:16;102545.28;;;10.18;41.54
12664;BME280;6396;58.490;15.528;2023-04-03T11:44:44;102446.34;;;9.64;46.83
12664;BME280;6396;58.490;15.528;2023-04-03T11:47:12;102670.66;;;10.72;43.34
12664;BME280;6396;58.490;15.528;2023-04-03T11:49:59;102761.59;;;11.04;40.89
12664;BME280;6396;58.490;15.528;2023-04-03T11:52:55;102814.66;;;11.32;37.28
12664;BME280;6396;58.490;15.528;2023-04-03T11:55:42;102808.41;;;11.20;42.23
12664;BME280;6396;58.490;15.528;2023-04-03T11:58:14;102805.69;;;11.08;45.99
12664;BME280;6396;58.490;15.528;2023-04-03T12:01:08;102631.38;;;10.08;46.93
12664;BME280;6396;58.490;15.528;2023-04-03T12:04:07;102799.41;;;10.91;47.57
12664;BME280;6396;58.490;15.528;2023-04-03T12:10:01;102606.44;;;9.73;36.23
12664;BME280;6396;58.490;15.528;2023-04-03T12:12:32;102474.75;;;8.99;40.46
12664;BME280;6396;58.490;15.528;2023-04-03T12:21:20;102771.81;;;10.56;45.37
12664;BME280;6396;58.490;15.528;2023-04-03T12:24:00;102307.47;;;7.73;50.12
12664;BME280;6396;58.490;15.528;2023-04-03T12:26:31;102779.47;;;10.29;45.01
12664;BME280;6396;58.490;15.528;2023-04-03T12:28:58;102710.19;;;9.70;49.56
12664;BME280;6396;58.490;15.528;2023-04-03T12:31:37;102664.69;;;9.15;53.09
12664;BME280;6396;58.490;15.528;2023-04-03T12:34:23;102691.91;;;9.14;45.61
12664;BME280;6396;58.490;15.528;2023-04-03T12:37:00;102641.19;;;8.67;53.33
12664;BME280;6396;58.490;15.528;2023-04-03T12:39:42;102798.44;;;9.29;51.34
12664;BME280;6396;58.490;15.528;2023-04-03T12:42:32;102377.41;;;7.05;45.90
12664;BME280;6396;58.490;15.528;2023-04-03T12:45:10;102816.50;;;9.03;45.26
12664;BME280;6396;58.490;15.528;2023-04-03T12:47:42;102767.34;;;9.06;46.21
12664;BME280;6396;58.490;15.528;2023-04-03T12:50:28;102396.63;;;7.03;44.94
12664;BME280;6396;58.490;15.528;2023-04-03T12:53:01;102432.88;;;7.23;55.13
12664;BME280;6396;58.490;15.528;2023-04-03T12:55:28;102467.69;;;7.61;53.21
12664;BME280;6396;58.490;15.528;2023-04-03T12:57:55;102667.44;;;8.61;59.16
12664;BME280;6396;58.490;15.528;2023-04-03T13:00:29;102792.41;;;9.38;50.14
12664;BME280;6396;58.490;15.528;2023-04-03T13:02:59;102246.16;;;6.54;54.65
12664;BME280;6396;58.490;15.528;2023-04-03T13:05:26;102714.66;;;9.06;54.22
12664;BME280;6396;58.490;15.528;2023-04-03T13:07:58;102510.53;;;7.57;60.56
12664;BME280;6396;58.490;15.528;2023-04-03T13:10:29;101783.13;;;3.91;57.04
12664;BME280;6396;58.490;15.528;2023-04-03T13:12:58;102756.22;;;9.26;63.51
12664;BME280;6396;58.490;15.528;2023-04-03T13:15:28;102132.72;;;5.66;62.19
12664;BME280;6396;58.490;15.528;2023-04-03T13:17:55;102447.81;;;7.82;63.74
12664;BME280;6396;58.490;15.528;2023-04-03T13:20:25;102680.41;;;9.09;58.28
12664;BME280;6396;58.490;15.528;2023-04-03T13:22:58;102739.41;;;9.18;65.52